Otto, Wyoming
Current Conditions -  °F | °C
As of 12:53 AM on Saturday 25 Oct 2014 (Local Time) from KGEY Reporting Station
Clear Clear  
Wind Chill: 38°   Ceiling: Unl
Heat Index: 41°   Visibility: 10mi
Dew Point: 32°   Wind: 5mph
Humidity: 70%   Direction: 130°SE
Pressure: 30.09"   Gusts: NA
Location:  44.4°N, 108.28°W
Report Text: KGEY 250653Z AUTO 13004KT 10SM CLR 05/00 A3009 RMK AO2 SLP182 T00500000 402500028
Loading
Personal Weather Stations






























Interactive Weather Map
Tropical Storm Tracking
New forecast layout! Learn more

10-Day Weather Forecast

Advertisements
Track Severe Weather on mobile